sensor_id;sensor_type;location;lat;lon;timestamp;P1;durP1;ratioP1;P2;durP2;ratioP2
34876;SDS011;21086;44.780;17.194;2023-07-13T00:01:55;6.30;;;2.83;;
34876;SDS011;21086;44.780;17.194;2023-07-13T00:04:23;6.88;;;3.10;;
34876;SDS011;21086;44.780;17.194;2023-07-13T00:06:56;5.38;;;2.80;;
34876;SDS011;21086;44.780;17.194;2023-07-13T00:09:24;6.68;;;3.17;;
34876;SDS011;21086;44.780;17.194;2023-07-13T00:11:51;3.90;;;2.72;;
34876;SDS011;21086;44.780;17.194;2023-07-13T00:14:22;4.45;;;2.70;;
34876;SDS011;21086;44.780;17.194;2023-07-13T00:16:50;3.55;;;2.72;;
34876;SDS011;21086;44.780;17.194;2023-07-13T00:19:18;3.72;;;3.00;;
34876;SDS011;21086;44.780;17.194;2023-07-13T00:21:45;7.20;;;2.65;;
34876;SDS011;21086;44.780;17.194;2023-07-13T00:24:15;4.18;;;2.90;;
34876;SDS011;21086;44.780;17.194;2023-07-13T00:26:48;4.05;;;2.83;;
34876;SDS011;21086;44.780;17.194;2023-07-13T00:29:15;5.10;;;3.17;;
34876;SDS011;21086;44.780;17.194;2023-07-13T00:31:42;4.00;;;2.60;;
34876;SDS011;21086;44.780;17.194;2023-07-13T00:34:10;5.93;;;2.88;;
34876;SDS011;21086;44.780;17.194;2023-07-13T00:36:37;3.70;;;2.63;;
34876;SDS011;21086;44.780;17.194;2023-07-13T00:39:04;4.45;;;3.22;;
34876;SDS011;21086;44.780;17.194;2023-07-13T00:41:31;4.70;;;2.78;;
34876;SDS011;21086;44.780;17.194;2023-07-13T00:43:59;5.15;;;2.75;;
34876;SDS011;21086;44.780;17.194;2023-07-13T00:46:28;4.53;;;2.55;;
34876;SDS011;21086;44.780;17.194;2023-07-13T00:48:59;3.40;;;2.70;;
34876;SDS011;21086;44.780;17.194;2023-07-13T00:51:34;4.82;;;2.83;;
34876;SDS011;21086;44.780;17.194;2023-07-13T00:54:09;4.18;;;2.50;;
34876;SDS011;21086;44.780;17.194;2023-07-13T00:56:47;5.75;;;2.50;;
34876;SDS011;21086;44.780;17.194;2023-07-13T01:00:03;3.28;;;2.40;;
34876;SDS011;21086;44.780;17.194;2023-07-13T01:02:35;4.50;;;2.50;;
34876;SDS011;21086;44.780;17.194;2023-07-13T01:05:09;2.78;;;2.40;;
34876;SDS011;21086;44.780;17.194;2023-07-13T01:07:38;3.17;;;2.28;;
34876;SDS011;21086;44.780;17.194;2023-07-13T01:10:05;6.00;;;2.80;;
34876;SDS011;21086;44.780;17.194;2023-07-13T01:12:33;5.65;;;2.80;;
34876;SDS011;21086;44.780;17.194;2023-07-13T01:15:01;4.05;;;2.55;;
34876;SDS011;21086;44.780;17.194;2023-07-13T01:17:29;5.18;;;2.38;;
34876;SDS011;21086;44.780;17.194;2023-07-13T01:19:57;4.72;;;2.80;;
34876;SDS011;21086;44.780;17.194;2023-07-13T01:22:24;3.20;;;2.20;;
34876;SDS011;21086;44.780;17.194;2023-07-13T01:24:53;2.90;;;2.08;;
34876;SDS011;21086;44.780;17.194;2023-07-13T01:27:22;3.80;;;2.72;;
34876;SDS011;21086;44.780;17.194;2023-07-13T01:29:52;5.22;;;2.45;;
34876;SDS011;21086;44.780;17.194;2023-07-13T01:32:21;8.52;;;3.03;;
34876;SDS011;21086;44.780;17.194;2023-07-13T01:34:51;5.97;;;2.40;;
34876;SDS011;21086;44.780;17.194;2023-07-13T01:37:24;3.35;;;2.30;;
34876;SDS011;21086;44.780;17.194;2023-07-13T01:39:52;5.65;;;2.28;;
34876;SDS011;21086;44.780;17.194;2023-07-13T01:42:19;6.63;;;2.58;;
34876;SDS011;21086;44.780;17.194;2023-07-13T01:44:46;7.97;;;2.63;;
34876;SDS011;21086;44.780;17.194;2023-07-13T01:47:13;3.50;;;2.17;;
34876;SDS011;21086;44.780;17.194;2023-07-13T01:49:40;6.25;;;2.58;;
34876;SDS011;21086;44.780;17.194;2023-07-13T01:52:07;3.53;;;2.38;;
34876;SDS011;21086;44.780;17.194;2023-07-13T01:54:34;3.70;;;2.40;;
34876;SDS011;21086;44.780;17.194;2023-07-13T01:57:01;5.25;;;2.70;;
34876;SDS011;21086;44.780;17.194;2023-07-13T01:59:30;3.55;;;2.20;;
34876;SDS011;21086;44.780;17.194;2023-07-13T02:01:59;3.45;;;2.08;;
34876;SDS011;21086;44.780;17.194;2023-07-13T02:04:26;3.42;;;2.17;;
34876;SDS011;21086;44.780;17.194;2023-07-13T02:06:53;2.03;;;1.83;;
34876;SDS011;21086;44.780;17.194;2023-07-13T02:09:21;5.85;;;2.55;;
34876;SDS011;21086;44.780;17.194;2023-07-13T02:11:49;3.47;;;1.75;;
34876;SDS011;21086;44.780;17.194;2023-07-13T02:14:16;4.20;;;2.15;;
34876;SDS011;21086;44.780;17.194;2023-07-13T02:16:43;2.83;;;1.98;;
34876;SDS011;21086;44.780;17.194;2023-07-13T02:19:10;3.95;;;2.20;;
34876;SDS011;21086;44.780;17.194;2023-07-13T02:21:37;4.05;;;1.88;;
34876;SDS011;21086;44.780;17.194;2023-07-13T02:24:06;4.68;;;2.17;;
34876;SDS011;21086;44.780;17.194;2023-07-13T02:26:32;3.40;;;2.08;;
34876;SDS011;21086;44.780;17.194;2023-07-13T02:29:00;4.28;;;2.20;;
34876;SDS011;21086;44.780;17.194;2023-07-13T02:31:27;3.28;;;2.30;;
34876;SDS011;21086;44.780;17.194;2023-07-13T02:33:54;4.05;;;2.38;;
34876;SDS011;21086;44.780;17.194;2023-07-13T02:36:21;5.32;;;1.98;;
34876;SDS011;21086;44.780;17.194;2023-07-13T02:38:49;4.25;;;2.08;;
34876;SDS011;21086;44.780;17.194;2023-07-13T02:41:16;9.15;;;2.40;;
34876;SDS011;21086;44.780;17.194;2023-07-13T02:43:43;4.80;;;2.60;;
34876;SDS011;21086;44.780;17.194;2023-07-13T02:46:10;4.30;;;2.30;;
34876;SDS011;21086;44.780;17.194;2023-07-13T02:48:38;2.75;;;2.30;;
34876;SDS011;21086;44.780;17.194;2023-07-13T02:51:06;3.70;;;2.78;;
34876;SDS011;21086;44.780;17.194;2023-07-13T02:53:34;5.20;;;3.22;;
34876;SDS011;21086;44.780;17.194;2023-07-13T02:56:03;7.10;;;2.80;;
34876;SDS011;21086;44.780;17.194;2023-07-13T02:58:31;5.60;;;2.65;;
34876;SDS011;21086;44.780;17.194;2023-07-13T03:00:58;7.05;;;2.72;;
34876;SDS011;21086;44.780;17.194;2023-07-13T03:03:26;5.57;;;3.22;;
34876;SDS011;21086;44.780;17.194;2023-07-13T03:05:58;4.60;;;2.70;;
34876;SDS011;21086;44.780;17.194;2023-07-13T03:08:27;5.32;;;2.20;;
34876;SDS011;21086;44.780;17.194;2023-07-13T03:11:01;3.95;;;3.00;;
34876;SDS011;21086;44.780;17.194;2023-07-13T03:13:33;4.68;;;2.83;;
34876;SDS011;21086;44.780;17.194;2023-07-13T03:16:01;7.20;;;3.22;;
34876;SDS011;21086;44.780;17.194;2023-07-13T03:18:28;4.47;;;3.20;;
34876;SDS011;21086;44.780;17.194;2023-07-13T03:20:56;7.50;;;3.10;;
34876;SDS011;21086;44.780;17.194;2023-07-13T03:23:23;6.70;;;2.85;;
34876;SDS011;21086;44.780;17.194;2023-07-13T03:26:00;3.63;;;2.70;;
34876;SDS011;21086;44.780;17.194;2023-07-13T03:28:37;4.05;;;2.67;;
34876;SDS011;21086;44.780;17.194;2023-07-13T03:31:08;4.38;;;2.63;;
34876;SDS011;21086;44.780;17.194;2023-07-13T03:33:40;3.13;;;2.30;;
34876;SDS011;21086;44.780;17.194;2023-07-13T03:36:09;4.93;;;2.58;;
34876;SDS011;21086;44.780;17.194;2023-07-13T03:38:39;6.70;;;2.60;;
34876;SDS011;21086;44.780;17.194;2023-07-13T03:41:06;5.22;;;2.53;;
34876;SDS011;21086;44.780;17.194;2023-07-13T03:43:33;3.85;;;2.63;;
34876;SDS011;21086;44.780;17.194;2023-07-13T03:46:00;4.10;;;2.40;;
34876;SDS011;21086;44.780;17.194;2023-07-13T03:48:28;5.50;;;2.38;;
34876;SDS011;21086;44.780;17.194;2023-07-13T03:50:55;2.75;;;2.42;;
34876;SDS011;21086;44.780;17.194;2023-07-13T03:53:22;3.08;;;2.63;;
34876;SDS011;21086;44.780;17.194;2023-07-13T03:55:49;4.90;;;2.42;;
34876;SDS011;21086;44.780;17.194;2023-07-13T03:58:23;4.97;;;2.33;;
34876;SDS011;21086;44.780;17.194;2023-07-13T04:00:56;6.80;;;2.47;;
34876;SDS011;21086;44.780;17.194;2023-07-13T04:03:24;4.15;;;2.38;;
34876;SDS011;21086;44.780;17.194;2023-07-13T04:05:54;3.58;;;2.03;;
34876;SDS011;21086;44.780;17.194;2023-07-13T04:08:27;4.65;;;2.42;;
34876;SDS011;21086;44.780;17.194;2023-07-13T04:10:55;5.30;;;2.13;;
34876;SDS011;21086;44.780;17.194;2023-07-13T04:13:23;3.78;;;2.65;;
34876;SDS011;21086;44.780;17.194;2023-07-13T04:15:51;4.97;;;2.25;;
34876;SDS011;21086;44.780;17.194;2023-07-13T04:18:19;4.35;;;2.08;;
34876;SDS011;21086;44.780;17.194;2023-07-13T04:20:47;4.13;;;2.08;;
34876;SDS011;21086;44.780;17.194;2023-07-13T04:23:16;4.10;;;2.40;;
34876;SDS011;21086;44.780;17.194;2023-07-13T04:25:44;4.43;;;2.47;;
34876;SDS011;21086;44.780;17.194;2023-07-13T04:28:22;2.60;;;2.20;;
34876;SDS011;21086;44.780;17.194;2023-07-13T04:30:50;3.95;;;2.25;;
34876;SDS011;21086;44.780;17.194;2023-07-13T04:33:17;3.95;;;2.33;;
34876;SDS011;21086;44.780;17.194;2023-07-13T04:35:52;8.43;;;2.63;;
34876;SDS011;21086;44.780;17.194;2023-07-13T04:38:24;4.38;;;2.38;;
34876;SDS011;21086;44.780;17.194;2023-07-13T04:40:55;7.88;;;2.45;;
34876;SDS011;21086;44.780;17.194;2023-07-13T04:43:27;5.32;;;2.53;;
34876;SDS011;21086;44.780;17.194;2023-07-13T04:45:54;3.35;;;2.10;;
34876;SDS011;21086;44.780;17.194;2023-07-13T04:48:22;5.40;;;2.42;;
34876;SDS011;21086;44.780;17.194;2023-07-13T04:50:54;3.72;;;2.47;;
34876;SDS011;21086;44.780;17.194;2023-07-13T04:53:23;3.63;;;2.22;;
34876;SDS011;21086;44.780;17.194;2023-07-13T04:55:51;4.50;;;2.60;;
34876;SDS011;21086;44.780;17.194;2023-07-13T04:58:18;4.20;;;2.22;;
34876;SDS011;21086;44.780;17.194;2023-07-13T05:00:45;3.97;;;2.20;;
34876;SDS011;21086;44.780;17.194;2023-07-13T05:03:12;3.08;;;2.05;;
34876;SDS011;21086;44.780;17.194;2023-07-13T05:05:39;7.78;;;2.72;;
34876;SDS011;21086;44.780;17.194;2023-07-13T05:08:07;3.92;;;2.70;;
34876;SDS011;21086;44.780;17.194;2023-07-13T05:10:34;5.30;;;2.30;;
34876;SDS011;21086;44.780;17.194;2023-07-13T05:13:02;5.05;;;3.30;;
34876;SDS011;21086;44.780;17.194;2023-07-13T05:15:29;4.63;;;2.60;;
34876;SDS011;21086;44.780;17.194;2023-07-13T05:17:56;6.50;;;2.78;;
34876;SDS011;21086;44.780;17.194;2023-07-13T05:20:23;5.72;;;2.88;;
34876;SDS011;21086;44.780;17.194;2023-07-13T05:22:50;5.13;;;3.00;;
34876;SDS011;21086;44.780;17.194;2023-07-13T05:25:17;6.10;;;2.50;;
34876;SDS011;21086;44.780;17.194;2023-07-13T05:27:45;8.00;;;3.10;;
34876;SDS011;21086;44.780;17.194;2023-07-13T05:30:13;4.10;;;2.75;;
34876;SDS011;21086;44.780;17.194;2023-07-13T05:32:41;7.05;;;2.75;;
34876;SDS011;21086;44.780;17.194;2023-07-13T05:35:08;4.35;;;2.95;;
34876;SDS011;21086;44.780;17.194;2023-07-13T05:37:37;6.00;;;2.92;;
34876;SDS011;21086;44.780;17.194;2023-07-13T05:40:04;6.63;;;2.58;;
34876;SDS011;21086;44.780;17.194;2023-07-13T05:42:32;7.72;;;2.67;;
34876;SDS011;21086;44.780;17.194;2023-07-13T05:44:59;6.10;;;2.35;;
34876;SDS011;21086;44.780;17.194;2023-07-13T05:47:28;5.22;;;3.05;;
34876;SDS011;21086;44.780;17.194;2023-07-13T05:49:55;4.18;;;2.38;;
34876;SDS011;21086;44.780;17.194;2023-07-13T05:52:22;4.28;;;2.38;;
34876;SDS011;21086;44.780;17.194;2023-07-13T05:54:49;5.70;;;2.50;;
34876;SDS011;21086;44.780;17.194;2023-07-13T05:57:16;10.35;;;3.35;;
34876;SDS011;21086;44.780;17.194;2023-07-13T05:59:43;7.03;;;3.25;;
34876;SDS011;21086;44.780;17.194;2023-07-13T06:02:11;4.25;;;2.88;;
34876;SDS011;21086;44.780;17.194;2023-07-13T06:04:37;7.40;;;2.55;;
34876;SDS011;21086;44.780;17.194;2023-07-13T06:07:04;6.60;;;2.75;;
34876;SDS011;21086;44.780;17.194;2023-07-13T06:09:32;8.48;;;2.45;;
34876;SDS011;21086;44.780;17.194;2023-07-13T06:11:59;13.65;;;2.75;;
34876;SDS011;21086;44.780;17.194;2023-07-13T06:14:26;7.20;;;2.65;;
34876;SDS011;21086;44.780;17.194;2023-07-13T06:16:53;5.75;;;2.75;;
34876;SDS011;21086;44.780;17.194;2023-07-13T06:19:21;7.35;;;2.38;;
34876;SDS011;21086;44.780;17.194;2023-07-13T06:21:48;7.35;;;2.35;;
34876;SDS011;21086;44.780;17.194;2023-07-13T06:24:15;4.97;;;2.50;;
34876;SDS011;21086;44.780;17.194;2023-07-13T06:26:42;5.68;;;2.72;;
34876;SDS011;21086;44.780;17.194;2023-07-13T06:29:09;6.80;;;2.47;;
34876;SDS011;21086;44.780;17.194;2023-07-13T06:31:36;8.65;;;2.97;;
34876;SDS011;21086;44.780;17.194;2023-07-13T06:34:04;4.85;;;2.80;;
34876;SDS011;21086;44.780;17.194;2023-07-13T06:36:31;7.05;;;2.53;;
34876;SDS011;21086;44.780;17.194;2023-07-13T06:38:58;7.70;;;2.83;;
34876;SDS011;21086;44.780;17.194;2023-07-13T06:41:25;8.07;;;2.83;;
34876;SDS011;21086;44.780;17.194;2023-07-13T06:43:52;9.45;;;2.80;;
34876;SDS011;21086;44.780;17.194;2023-07-13T06:46:21;5.55;;;2.72;;
34876;SDS011;21086;44.780;17.194;2023-07-13T06:48:49;4.00;;;2.80;;
34876;SDS011;21086;44.780;17.194;2023-07-13T06:51:16;4.00;;;2.63;;
34876;SDS011;21086;44.780;17.194;2023-07-13T06:53:43;6.43;;;2.90;;
34876;SDS011;21086;44.780;17.194;2023-07-13T06:56:10;5.78;;;2.47;;
34876;SDS011;21086;44.780;17.194;2023-07-13T06:58:37;4.35;;;2.47;;
34876;SDS011;21086;44.780;17.194;2023-07-13T07:01:05;4.25;;;2.70;;
34876;SDS011;21086;44.780;17.194;2023-07-13T07:03:34;5.65;;;2.35;;
34876;SDS011;21086;44.780;17.194;2023-07-13T07:08:42;6.00;;;3.03;;
34876;SDS011;21086;44.780;17.194;2023-07-13T07:11:12;6.28;;;2.78;;
34876;SDS011;21086;44.780;17.194;2023-07-13T07:13:40;6.18;;;3.00;;
34876;SDS011;21086;44.780;17.194;2023-07-13T07:16:08;4.63;;;2.65;;
34876;SDS011;21086;44.780;17.194;2023-07-13T07:18:35;5.05;;;2.83;;
34876;SDS011;21086;44.780;17.194;2023-07-13T07:21:03;6.80;;;2.70;;
34876;SDS011;21086;44.780;17.194;2023-07-13T07:23:30;9.68;;;3.05;;
34876;SDS011;21086;44.780;17.194;2023-07-13T07:25:58;4.30;;;2.47;;
34876;SDS011;21086;44.780;17.194;2023-07-13T07:28:25;5.55;;;2.53;;
34876;SDS011;21086;44.780;17.194;2023-07-13T07:31:11;5.05;;;2.90;;
34876;SDS011;21086;44.780;17.194;2023-07-13T07:33:41;5.18;;;2.63;;
34876;SDS011;21086;44.780;17.194;2023-07-13T07:36:09;4.95;;;2.38;;
34876;SDS011;21086;44.780;17.194;2023-07-13T07:38:39;10.05;;;2.92;;
34876;SDS011;21086;44.780;17.194;2023-07-13T07:41:06;11.23;;;2.67;;
34876;SDS011;21086;44.780;17.194;2023-07-13T07:43:36;7.30;;;3.33;;
34876;SDS011;21086;44.780;17.194;2023-07-13T07:46:03;8.60;;;3.10;;
34876;SDS011;21086;44.780;17.194;2023-07-13T07:48:31;4.82;;;2.60;;
34876;SDS011;21086;44.780;17.194;2023-07-13T07:50:58;7.45;;;3.15;;
34876;SDS011;21086;44.780;17.194;2023-07-13T07:53:26;7.68;;;2.85;;
34876;SDS011;21086;44.780;17.194;2023-07-13T07:55:53;6.95;;;2.97;;
34876;SDS011;21086;44.780;17.194;2023-07-13T07:58:23;6.65;;;2.40;;
34876;SDS011;21086;44.780;17.194;2023-07-13T08:00:52;8.40;;;3.03;;
34876;SDS011;21086;44.780;17.194;2023-07-13T08:03:23;4.07;;;2.67;;
34876;SDS011;21086;44.780;17.194;2023-07-13T08:05:53;5.53;;;2.60;;
34876;SDS011;21086;44.780;17.194;2023-07-13T08:08:23;6.60;;;2.72;;
34876;SDS011;21086;44.780;17.194;2023-07-13T08:10:51;8.55;;;3.03;;
34876;SDS011;21086;44.780;17.194;2023-07-13T08:13:25;6.90;;;2.72;;
34876;SDS011;21086;44.780;17.194;2023-07-13T08:15:52;12.65;;;3.53;;
34876;SDS011;21086;44.780;17.194;2023-07-13T08:18:19;4.53;;;2.80;;
34876;SDS011;21086;44.780;17.194;2023-07-13T08:20:46;9.38;;;2.95;;
34876;SDS011;21086;44.780;17.194;2023-07-13T08:23:14;8.88;;;3.13;;
34876;SDS011;21086;44.780;17.194;2023-07-13T08:25:43;6.60;;;2.90;;
34876;SDS011;21086;44.780;17.194;2023-07-13T08:28:20;5.60;;;2.42;;
34876;SDS011;21086;44.780;17.194;2023-07-13T08:30:48;9.02;;;3.20;;
34876;SDS011;21086;44.780;17.194;2023-07-13T08:33:16;7.82;;;3.53;;
34876;SDS011;21086;44.780;17.194;2023-07-13T08:35:48;5.70;;;3.28;;
34876;SDS011;21086;44.780;17.194;2023-07-13T08:38:16;4.93;;;2.83;;
34876;SDS011;21086;44.780;17.194;2023-07-13T08:40:43;8.63;;;2.95;;
34876;SDS011;21086;44.780;17.194;2023-07-13T08:43:16;7.85;;;3.03;;
34876;SDS011;21086;44.780;17.194;2023-07-13T08:45:46;7.13;;;3.05;;
34876;SDS011;21086;44.780;17.194;2023-07-13T08:48:22;15.68;;;2.63;;
34876;SDS011;21086;44.780;17.194;2023-07-13T08:51:02;5.43;;;2.47;;
34876;SDS011;21086;44.780;17.194;2023-07-13T08:54:04;4.00;;;2.20;;
34876;SDS011;21086;44.780;17.194;2023-07-13T08:56:58;6.13;;;2.30;;
34876;SDS011;21086;44.780;17.194;2023-07-13T08:59:29;6.90;;;2.60;;
34876;SDS011;21086;44.780;17.194;2023-07-13T09:02:02;4.47;;;2.30;;
34876;SDS011;21086;44.780;17.194;2023-07-13T09:10:05;4.70;;;2.35;;
34876;SDS011;21086;44.780;17.194;2023-07-13T09:15:36;4.78;;;2.42;;
34876;SDS011;21086;44.780;17.194;2023-07-13T09:18:08;3.90;;;2.10;;
34876;SDS011;21086;44.780;17.194;2023-07-13T09:23:21;4.57;;;2.10;;
34876;SDS011;21086;44.780;17.194;2023-07-13T09:25:51;8.48;;;2.50;;
34876;SDS011;21086;44.780;17.194;2023-07-13T09:28:26;7.95;;;2.50;;
34876;SDS011;21086;44.780;17.194;2023-07-13T09:31:01;5.82;;;2.10;;
34876;SDS011;21086;44.780;17.194;2023-07-13T09:33:32;8.63;;;2.58;;
34876;SDS011;21086;44.780;17.194;2023-07-13T09:36:01;7.20;;;2.40;;
34876;SDS011;21086;44.780;17.194;2023-07-13T09:44:34;4.68;;;2.28;;
34876;SDS011;21086;44.780;17.194;2023-07-13T09:47:22;3.97;;;2.13;;
34876;SDS011;21086;44.780;17.194;2023-07-13T09:49:54;5.13;;;2.10;;
34876;SDS011;21086;44.780;17.194;2023-07-13T09:52:39;6.85;;;2.63;;
34876;SDS011;21086;44.780;17.194;2023-07-13T09:55:25;7.75;;;3.28;;
34876;SDS011;21086;44.780;17.194;2023-07-13T09:57:52;3.15;;;2.17;;
34876;SDS011;21086;44.780;17.194;2023-07-13T10:00:21;4.78;;;2.40;;
34876;SDS011;21086;44.780;17.194;2023-07-13T10:03:00;5.40;;;2.35;;
34876;SDS011;21086;44.780;17.194;2023-07-13T10:05:39;5.95;;;2.60;;
34876;SDS011;21086;44.780;17.194;2023-07-13T10:08:18;3.92;;;2.28;;
34876;SDS011;21086;44.780;17.194;2023-07-13T10:11:01;4.57;;;2.55;;
34876;SDS011;21086;44.780;17.194;2023-07-13T10:13:56;5.40;;;2.60;;
34876;SDS011;21086;44.780;17.194;2023-07-13T10:16:27;3.38;;;2.28;;
34876;SDS011;21086;44.780;17.194;2023-07-13T10:19:05;6.68;;;2.30;;
34876;SDS011;21086;44.780;17.194;2023-07-13T10:21:54;6.38;;;2.65;;
34876;SDS011;21086;44.780;17.194;2023-07-13T10:24:25;5.90;;;2.60;;
34876;SDS011;21086;44.780;17.194;2023-07-13T10:27:13;7.60;;;2.33;;
34876;SDS011;21086;44.780;17.194;2023-07-13T10:29:55;4.80;;;2.05;;
34876;SDS011;21086;44.780;17.194;2023-07-13T10:32:37;3.83;;;2.38;;
34876;SDS011;21086;44.780;17.194;2023-07-13T10:35:04;5.38;;;2.25;;
34876;SDS011;21086;44.780;17.194;2023-07-13T10:37:37;5.80;;;2.67;;
34876;SDS011;21086;44.780;17.194;2023-07-13T10:40:38;8.15;;;2.97;;
34876;SDS011;21086;44.780;17.194;2023-07-13T10:43:52;4.60;;;2.50;;
34876;SDS011;21086;44.780;17.194;2023-07-13T10:46:05;9.38;;;2.85;;
34876;SDS011;21086;44.780;17.194;2023-07-13T10:48:35;4.97;;;3.10;;
34876;SDS011;21086;44.780;17.194;2023-07-13T10:51:03;7.43;;;3.10;;
34876;SDS011;21086;44.780;17.194;2023-07-13T10:53:34;7.07;;;3.38;;
34876;SDS011;21086;44.780;17.194;2023-07-13T10:56:03;4.93;;;3.20;;
34876;SDS011;21086;44.780;17.194;2023-07-13T10:59:10;8.88;;;3.22;;
34876;SDS011;21086;44.780;17.194;2023-07-13T11:01:48;6.57;;;3.47;;
34876;SDS011;21086;44.780;17.194;2023-07-13T11:04:26;7.70;;;3.10;;
34876;SDS011;21086;44.780;17.194;2023-07-13T11:06:57;6.43;;;3.92;;
34876;SDS011;21086;44.780;17.194;2023-07-13T11:09:40;6.20;;;3.20;;
34876;SDS011;21086;44.780;17.194;2023-07-13T11:12:56;6.10;;;2.63;;
34876;SDS011;21086;44.780;17.194;2023-07-13T11:15:26;9.25;;;2.75;;
34876;SDS011;21086;44.780;17.194;2023-07-13T11:17:56;7.50;;;2.85;;
34876;SDS011;21086;44.780;17.194;2023-07-13T11:20:32;8.85;;;2.53;;
34876;SDS011;21086;44.780;17.194;2023-07-13T11:23:09;5.93;;;2.53;;
34876;SDS011;21086;44.780;17.194;2023-07-13T11:25:43;6.07;;;2.65;;
34876;SDS011;21086;44.780;17.194;2023-07-13T11:33:23;6.78;;;2.90;;
34876;SDS011;21086;44.780;17.194;2023-07-13T11:36:00;6.45;;;2.60;;
34876;SDS011;21086;44.780;17.194;2023-07-13T11:38:44;4.93;;;2.75;;
34876;SDS011;21086;44.780;17.194;2023-07-13T11:41:19;6.75;;;3.33;;
34876;SDS011;21086;44.780;17.194;2023-07-13T11:44:10;6.93;;;4.28;;
34876;SDS011;21086;44.780;17.194;2023-07-13T11:46:43;9.73;;;5.18;;
34876;SDS011;21086;44.780;17.194;2023-07-13T11:49:16;12.20;;;4.25;;
34876;SDS011;21086;44.780;17.194;2023-07-13T11:51:44;6.00;;;4.03;;
34876;SDS011;21086;44.780;17.194;2023-07-13T11:54:26;5.32;;;3.53;;
34876;SDS011;21086;44.780;17.194;2023-07-13T11:57:38;7.95;;;3.60;;
34876;SDS011;21086;44.780;17.194;2023-07-13T11:59:44;6.25;;;3.67;;
34876;SDS011;21086;44.780;17.194;2023-07-13T12:02:15;7.05;;;2.85;;
34876;SDS011;21086;44.780;17.194;2023-07-13T12:04:49;7.05;;;2.80;;
34876;SDS011;21086;44.780;17.194;2023-07-13T12:07:18;6.15;;;2.97;;
34876;SDS011;21086;44.780;17.194;2023-07-13T12:09:46;7.50;;;2.83;;
34876;SDS011;21086;44.780;17.194;2023-07-13T12:12:15;5.82;;;2.45;;
34876;SDS011;21086;44.780;17.194;2023-07-13T12:14:45;4.20;;;2.45;;
34876;SDS011;21086;44.780;17.194;2023-07-13T12:17:16;4.20;;;2.28;;
34876;SDS011;21086;44.780;17.194;2023-07-13T12:19:50;7.57;;;2.60;;
34876;SDS011;21086;44.780;17.194;2023-07-13T12:22:19;5.88;;;2.58;;
34876;SDS011;21086;44.780;17.194;2023-07-13T12:24:47;7.07;;;2.42;;
34876;SDS011;21086;44.780;17.194;2023-07-13T12:27:22;8.23;;;2.63;;
34876;SDS011;21086;44.780;17.194;2023-07-13T12:29:58;6.13;;;3.22;;
34876;SDS011;21086;44.780;17.194;2023-07-13T12:32:28;4.43;;;2.90;;
34876;SDS011;21086;44.780;17.194;2023-07-13T12:35:04;7.57;;;3.45;;
34876;SDS011;21086;44.780;17.194;2023-07-13T12:37:45;8.43;;;3.10;;
34876;SDS011;21086;44.780;17.194;2023-07-13T12:40:14;7.22;;;3.33;;
34876;SDS011;21086;44.780;17.194;2023-07-13T12:42:48;6.82;;;3.10;;
34876;SDS011;21086;44.780;17.194;2023-07-13T12:45:22;7.43;;;3.08;;
34876;SDS011;21086;44.780;17.194;2023-07-13T12:48:04;4.85;;;3.40;;
34876;SDS011;21086;44.780;17.194;2023-07-13T12:50:40;10.43;;;3.70;;
34876;SDS011;21086;44.780;17.194;2023-07-13T12:53:13;6.65;;;3.58;;
34876;SDS011;21086;44.780;17.194;2023-07-13T12:55:42;4.30;;;2.78;;
34876;SDS011;21086;44.780;17.194;2023-07-13T12:58:37;6.57;;;2.60;;
34876;SDS011;21086;44.780;17.194;2023-07-13T13:01:13;7.68;;;2.65;;
34876;SDS011;21086;44.780;17.194;2023-07-13T13:03:47;8.70;;;2.67;;
34876;SDS011;21086;44.780;17.194;2023-07-13T13:08:55;5.93;;;2.40;;
34876;SDS011;21086;44.780;17.194;2023-07-13T13:11:29;9.32;;;2.70;;
34876;SDS011;21086;44.780;17.194;2023-07-13T13:13:57;9.98;;;2.53;;
34876;SDS011;21086;44.780;17.194;2023-07-13T13:18:53;5.28;;;2.33;;
34876;SDS011;21086;44.780;17.194;2023-07-13T13:21:23;7.05;;;2.45;;
34876;SDS011;21086;44.780;17.194;2023-07-13T13:23:52;13.18;;;3.17;;
34876;SDS011;21086;44.780;17.194;2023-07-13T13:26:21;4.47;;;2.63;;
34876;SDS011;21086;44.780;17.194;2023-07-13T13:28:49;7.50;;;2.80;;
34876;SDS011;21086;44.780;17.194;2023-07-13T13:31:16;5.63;;;2.17;;
34876;SDS011;21086;44.780;17.194;2023-07-13T13:33:43;5.30;;;2.35;;
34876;SDS011;21086;44.780;17.194;2023-07-13T13:36:16;5.22;;;2.25;;
34876;SDS011;21086;44.780;17.194;2023-07-13T13:38:46;6.28;;;2.25;;
34876;SDS011;21086;44.780;17.194;2023-07-13T13:41:13;4.40;;;2.40;;
34876;SDS011;21086;44.780;17.194;2023-07-13T13:43:41;5.78;;;2.10;;
34876;SDS011;21086;44.780;17.194;2023-07-13T13:46:15;8.05;;;1.95;;
34876;SDS011;21086;44.780;17.194;2023-07-13T13:48:49;3.78;;;1.80;;
34876;SDS011;21086;44.780;17.194;2023-07-13T13:51:21;4.57;;;2.10;;
34876;SDS011;21086;44.780;17.194;2023-07-13T13:53:50;3.78;;;2.00;;
34876;SDS011;21086;44.780;17.194;2023-07-13T13:56:18;6.50;;;1.80;;
34876;SDS011;21086;44.780;17.194;2023-07-13T13:58:46;3.83;;;1.92;;
34876;SDS011;21086;44.780;17.194;2023-07-13T14:01:16;4.00;;;1.80;;
34876;SDS011;21086;44.780;17.194;2023-07-13T14:03:45;6.15;;;2.20;;
34876;SDS011;21086;44.780;17.194;2023-07-13T14:06:15;4.13;;;1.95;;
34876;SDS011;21086;44.780;17.194;2023-07-13T14:08:42;4.70;;;2.60;;
34876;SDS011;21086;44.780;17.194;2023-07-13T14:11:15;8.57;;;2.75;;
34876;SDS011;21086;44.780;17.194;2023-07-13T14:13:45;9.35;;;2.10;;
34876;SDS011;21086;44.780;17.194;2023-07-13T14:16:17;4.05;;;2.42;;
34876;SDS011;21086;44.780;17.194;2023-07-13T14:18:47;7.55;;;2.10;;
34876;SDS011;21086;44.780;17.194;2023-07-13T14:21:16;10.38;;;2.50;;
34876;SDS011;21086;44.780;17.194;2023-07-13T14:23:45;3.40;;;1.80;;
34876;SDS011;21086;44.780;17.194;2023-07-13T14:26:14;5.30;;;2.05;;
34876;SDS011;21086;44.780;17.194;2023-07-13T14:29:04;6.82;;;1.90;;
34876;SDS011;21086;44.780;17.194;2023-07-13T14:31:40;6.50;;;2.10;;
34876;SDS011;21086;44.780;17.194;2023-07-13T14:34:07;5.57;;;2.53;;
34876;SDS011;21086;44.780;17.194;2023-07-13T14:36:41;5.47;;;2.30;;
34876;SDS011;21086;44.780;17.194;2023-07-13T14:39:13;7.32;;;2.58;;
34876;SDS011;21086;44.780;17.194;2023-07-13T14:41:43;5.10;;;2.17;;
34876;SDS011;21086;44.780;17.194;2023-07-13T14:44:14;3.80;;;2.10;;
34876;SDS011;21086;44.780;17.194;2023-07-13T14:46:45;5.78;;;2.60;;
34876;SDS011;21086;44.780;17.194;2023-07-13T14:51:47;5.50;;;2.78;;
34876;SDS011;21086;44.780;17.194;2023-07-13T14:54:14;7.07;;;2.50;;
34876;SDS011;21086;44.780;17.194;2023-07-13T14:56:44;5.10;;;2.20;;
34876;SDS011;21086;44.780;17.194;2023-07-13T14:59:11;8.00;;;3.10;;
34876;SDS011;21086;44.780;17.194;2023-07-13T15:01:39;6.85;;;3.17;;
34876;SDS011;21086;44.780;17.194;2023-07-13T15:04:06;4.07;;;2.45;;
34876;SDS011;21086;44.780;17.194;2023-07-13T15:06:54;5.00;;;2.67;;
34876;SDS011;21086;44.780;17.194;2023-07-13T15:09:29;7.53;;;2.40;;
34876;SDS011;21086;44.780;17.194;2023-07-13T15:11:56;9.10;;;2.88;;
34876;SDS011;21086;44.780;17.194;2023-07-13T15:14:25;12.23;;;2.50;;
34876;SDS011;21086;44.780;17.194;2023-07-13T15:16:57;5.00;;;2.60;;
34876;SDS011;21086;44.780;17.194;2023-07-13T15:19:24;3.78;;;2.50;;
34876;SDS011;21086;44.780;17.194;2023-07-13T15:21:53;11.45;;;2.70;;
34876;SDS011;21086;44.780;17.194;2023-07-13T15:24:24;5.40;;;2.55;;
34876;SDS011;21086;44.780;17.194;2023-07-13T15:26:52;5.40;;;2.80;;
34876;SDS011;21086;44.780;17.194;2023-07-13T15:29:19;5.15;;;2.55;;